createdAt,value
2022-09-23T00:02:37.327Z,66.60
2022-09-23T00:07:41.261Z,66.60
2022-09-23T00:12:43.618Z,66.90
2022-09-23T00:17:46.130Z,66.80
2022-09-23T00:22:49.882Z,66.90
2022-09-23T00:27:52.184Z,67.20
2022-09-23T00:32:54.505Z,67.00
2022-09-23T00:37:58.390Z,67.30
2022-09-23T00:43:00.706Z,67.90
2022-09-23T00:48:04.429Z,67.60
2022-09-23T00:53:11.309Z,67.70
2022-09-23T00:58:18.869Z,67.80
2022-09-23T01:03:21.996Z,68.10
2022-09-23T01:08:27.444Z,68.00
2022-09-23T01:13:38.717Z,68.00
2022-09-23T01:18:49.137Z,67.90
2022-09-23T01:24:15.539Z,68.10
2022-09-23T01:29:46.506Z,68.60
2022-09-23T01:34:58.426Z,68.60
2022-09-23T01:40:07.300Z,68.30
2022-09-23T01:45:15.075Z,68.30
2022-09-23T01:50:22.807Z,68.00
2022-09-23T01:55:30.114Z,68.30
2022-09-23T02:00:38.015Z,68.40
2022-09-23T02:05:48.387Z,68.40
2022-09-23T02:10:55.477Z,68.60
2022-09-23T02:16:01.945Z,68.30
2022-09-23T02:21:09.611Z,68.00
2022-09-23T02:26:19.228Z,68.30
2022-09-23T02:31:30.913Z,68.60
2022-09-23T02:36:43.442Z,69.10
2022-09-23T02:41:55.736Z,69.20
2022-09-23T02:46:58.296Z,69.20
2022-09-23T02:52:04.394Z,69.30
2022-09-23T02:57:08.419Z,69.80
2022-09-23T03:02:25.779Z,69.70
2022-09-23T03:07:37.099Z,70.40
2022-09-23T03:12:46.447Z,70.40
2022-09-23T03:17:57.254Z,70.20
2022-09-23T03:23:05.801Z,70.70
2022-09-23T03:28:08.924Z,71.10
2022-09-23T03:33:15.438Z,70.90
2022-09-23T03:38:21.549Z,71.20
2022-09-23T03:43:23.883Z,70.90
2022-09-23T03:48:26.600Z,70.70
2022-09-23T03:53:30.359Z,70.80
2022-09-23T03:58:32.957Z,70.90
2022-09-23T04:03:35.328Z,71.10
2022-09-23T04:08:39.025Z,71.30
2022-09-23T04:13:41.603Z,72.50
2022-09-23T04:18:44.200Z,71.70
2022-09-23T04:23:48.544Z,72.00
2022-09-23T04:28:51.295Z,72.40
2022-09-23T04:33:53.852Z,72.10
2022-09-23T04:38:58.029Z,71.90
2022-09-23T04:44:00.603Z,72.50
2022-09-23T04:49:15.062Z,72.50
2022-09-23T04:54:25.494Z,73.40
2022-09-23T04:59:28.192Z,72.80
2022-09-23T05:04:30.911Z,73.30
2022-09-23T05:09:35.146Z,72.90
2022-09-23T05:14:38.586Z,73.10
2022-09-23T05:19:41.431Z,73.60
2022-09-23T05:24:45.364Z,73.10
2022-09-23T05:29:48.025Z,72.90
2022-09-23T05:34:51.170Z,72.90
2022-09-23T05:39:55.094Z,72.90
2022-09-23T05:44:57.506Z,72.60
2022-09-23T05:50:00.666Z,72.50
2022-09-23T05:55:06.185Z,72.90
2022-09-23T06:00:11.001Z,73.40
2022-09-23T06:05:13.527Z,73.70
2022-09-23T06:10:17.736Z,74.30
2022-09-23T06:15:20.465Z,74.20
2022-09-23T06:20:23.165Z,72.70
2022-09-23T06:25:26.972Z,70.90
2022-09-23T06:30:29.503Z,69.60
2022-09-23T06:35:31.854Z,69.00
2022-09-23T06:40:35.901Z,69.00
2022-09-23T06:45:38.299Z,69.30
2022-09-23T06:50:40.900Z,68.40
2022-09-23T06:55:45.038Z,67.60
2022-09-23T07:00:47.514Z,67.70
2022-09-23T07:05:54.436Z,67.80
2022-09-23T07:11:00.229Z,67.80
2022-09-23T07:16:02.760Z,68.30
2022-09-23T07:21:10.962Z,68.50
2022-09-23T07:26:16.250Z,67.80
2022-09-23T07:31:31.471Z,67.20
2022-09-23T07:36:38.208Z,66.30
2022-09-23T07:41:42.781Z,64.00
2022-09-23T07:46:46.004Z,61.70
2022-09-23T07:51:48.746Z,60.40
2022-09-23T07:56:52.970Z,60.20
2022-09-23T08:01:56.163Z,58.90
2022-09-23T08:07:01.070Z,57.10
2022-09-23T08:12:05.941Z,57.70
2022-09-23T08:17:12.475Z,56.10
2022-09-23T08:22:14.897Z,56.00
2022-09-23T08:27:18.714Z,55.90
2022-09-23T08:32:22.626Z,55.30
2022-09-23T08:37:25.078Z,54.90
2022-09-23T08:42:33.516Z,54.40
2022-09-23T08:47:44.649Z,53.10
2022-09-23T08:52:52.364Z,53.10
2022-09-23T08:58:24.628Z,53.60
2022-09-23T09:03:38.186Z,53.60
2022-09-23T09:08:41.590Z,53.80
2022-09-23T09:13:55.486Z,54.20
2022-09-23T09:18:58.003Z,54.40
2022-09-23T09:24:02.570Z,54.90
2022-09-23T09:29:34.264Z,55.30
2022-09-23T09:34:42.577Z,55.70
2022-09-23T09:39:45.255Z,55.80
2022-09-23T09:44:53.767Z,55.80
2022-09-23T09:50:03.570Z,56.00
2022-09-23T09:55:26.285Z,56.50
2022-09-23T10:00:42.040Z,56.70
2022-09-23T10:05:51.294Z,55.90
2022-09-23T10:11:00.864Z,56.10
2022-09-23T10:16:05.835Z,56.30
2022-09-23T10:21:10.437Z,56.50
2022-09-23T10:26:14.642Z,56.70
2022-09-23T10:31:26.330Z,56.90
2022-09-23T10:36:31.431Z,57.30
2022-09-23T10:41:43.879Z,57.30
2022-09-23T10:46:59.933Z,57.70
2022-09-23T10:52:17.894Z,58.00
2022-09-23T10:57:34.542Z,58.50
2022-09-23T11:03:20.514Z,58.40
2022-09-23T11:08:57.867Z,58.70
2022-09-23T11:14:35.177Z,58.80
2022-09-23T11:20:08.133Z,59.30
2022-09-23T11:25:34.603Z,59.40
2022-09-23T11:30:45.584Z,59.40
2022-09-23T11:35:53.297Z,59.50
2022-09-23T11:41:01.152Z,59.70
2022-09-23T11:46:10.168Z,59.60
2022-09-23T11:51:22.230Z,59.50
2022-09-23T11:56:35.492Z,59.40
2022-09-23T12:01:45.765Z,59.40
2022-09-23T12:06:54.995Z,59.60
2022-09-23T12:12:04.546Z,59.90
2022-09-23T12:17:25.250Z,59.60
2022-09-23T12:22:44.228Z,60.20
2022-09-23T12:27:49.947Z,60.10
2022-09-23T12:32:53.796Z,60.00
2022-09-23T12:38:00.949Z,59.50
2022-09-23T12:43:05.724Z,60.10
2022-09-23T12:48:27.499Z,60.00
2022-09-23T12:54:08.702Z,59.90
2022-09-23T12:59:24.809Z,59.70
2022-09-23T13:04:34.687Z,60.90
2022-09-23T13:09:41.483Z,59.90
2022-09-23T13:14:48.917Z,59.80
2022-09-23T13:20:01.097Z,59.30
2022-09-23T13:25:17.655Z,59.40
2022-09-23T13:30:26.337Z,59.10
2022-09-23T13:35:34.973Z,58.80
2022-09-23T13:40:38.941Z,58.50
2022-09-23T13:45:43.369Z,58.10
2022-09-23T13:50:48.818Z,58.00
2022-09-23T13:56:01.732Z,58.00
2022-09-23T14:01:08.846Z,58.00
2022-09-23T14:06:12.538Z,58.40
2022-09-23T14:11:17.170Z,58.50
2022-09-23T14:16:23.337Z,58.00
2022-09-23T14:21:32.486Z,58.10
2022-09-23T14:26:35.287Z,57.90
2022-09-23T14:31:39.767Z,57.60
2022-09-23T14:36:44.779Z,57.60
2022-09-23T14:41:47.294Z,57.60
2022-09-23T14:46:56.795Z,57.50
2022-09-23T14:52:06.373Z,57.80
2022-09-23T14:57:26.774Z,57.70
2022-09-23T15:02:36.245Z,57.70
2022-09-23T15:07:40.991Z,57.80
2022-09-23T15:12:56.968Z,57.90
2022-09-23T15:18:25.949Z,58.30
2022-09-23T15:23:36.546Z,58.40
2022-09-23T15:28:39.018Z,58.60
2022-09-23T15:33:49.465Z,58.50
2022-09-23T15:38:58.412Z,58.50
2022-09-23T15:44:19.773Z,58.40
2022-09-23T15:49:33.899Z,58.90
2022-09-23T15:54:41.624Z,58.80
2022-09-23T15:59:44.037Z,58.80
2022-09-23T16:04:49.219Z,58.80
2022-09-23T16:09:53.021Z,58.80
2022-09-23T16:14:55.808Z,59.10
2022-09-23T16:20:01.723Z,59.00
2022-09-23T16:25:04.951Z,59.00
2022-09-23T16:30:09.330Z,59.10
2022-09-23T16:35:16.394Z,59.10
2022-09-23T16:45:54.217Z,59.20
2022-09-23T16:51:04.266Z,59.30
2022-09-23T17:02:41.300Z,60.30
2022-09-23T17:07:47.615Z,60.00
2022-09-23T17:12:50.265Z,60.30
2022-09-23T17:17:53.758Z,60.20
2022-09-23T17:23:39.230Z,60.90
2022-09-23T17:28:45.314Z,61.80
2022-09-23T17:34:05.045Z,61.70
2022-09-23T17:40:06.926Z,63.10
2022-09-23T18:04:12.655Z,64.70
2022-09-23T18:09:34.168Z,64.40
2022-09-23T18:14:36.701Z,65.00
2022-09-23T18:19:44.580Z,64.20
2022-09-23T18:24:47.873Z,64.60
2022-09-23T18:29:51.185Z,64.70
2022-09-23T18:34:56.087Z,64.80
2022-09-23T18:39:58.648Z,65.00
2022-09-23T18:45:02.808Z,65.00
2022-09-23T18:50:10.379Z,65.40
2022-09-23T18:55:13.096Z,66.00
2022-09-23T19:00:18.656Z,66.00
2022-09-23T19:05:28.432Z,66.60
2022-09-23T19:10:31.612Z,67.60
2022-09-23T19:15:34.195Z,67.50
2022-09-23T19:20:38.312Z,68.00
2022-09-23T19:25:42.663Z,68.50
2022-09-23T19:30:45.300Z,68.60
2022-09-23T19:35:51.186Z,68.90
2022-09-23T19:40:54.049Z,69.60
2022-09-23T19:45:58.151Z,70.80
2022-09-23T19:51:04.002Z,71.10
2022-09-23T19:56:08.677Z,71.50
2022-09-23T20:01:11.260Z,71.90
2022-09-23T20:06:20.722Z,72.20
2022-09-23T20:11:28.237Z,73.50
2022-09-23T20:16:36.047Z,73.10
2022-09-23T20:21:42.355Z,73.10
2022-09-23T20:26:45.053Z,73.80
2022-09-23T20:31:47.777Z,73.40
2022-09-23T20:36:56.217Z,73.40
2022-09-23T20:41:59.522Z,74.20
2022-09-23T20:47:04.397Z,73.90
2022-09-23T20:52:09.571Z,73.70
2022-09-23T20:57:14.084Z,74.60
2022-09-23T21:02:19.471Z,74.80
2022-09-23T21:07:30.939Z,74.70
2022-09-23T21:12:33.337Z,75.50
2022-09-23T21:17:39.825Z,75.50
2022-09-23T21:22:45.312Z,75.70
2022-09-23T21:27:56.462Z,76.10
2022-09-23T21:32:59.534Z,76.70
2022-09-23T21:38:17.108Z,76.20
2022-09-23T21:43:41.892Z,77.10
2022-09-23T21:48:52.244Z,76.20
2022-09-23T21:54:02.542Z,77.20
2022-09-23T21:59:11.366Z,77.20
2022-09-23T22:04:21.377Z,76.40
2022-09-23T22:09:27.577Z,77.00
2022-09-23T22:14:32.395Z,77.20
2022-09-23T22:19:36.767Z,76.80
2022-09-23T22:24:45.331Z,77.10
2022-09-23T22:30:32.480Z,78.30
2022-09-23T22:35:39.346Z,79.10
2022-09-23T22:40:45.734Z,77.50
2022-09-23T22:45:53.751Z,77.60
2022-09-23T22:51:05.254Z,77.70
2022-09-23T22:56:20.012Z,77.70
2022-09-23T23:01:25.946Z,78.40
2022-09-23T23:06:38.862Z,77.50
2022-09-23T23:11:43.514Z,77.90
2022-09-23T23:16:47.474Z,78.10
2022-09-23T23:21:50.950Z,78.30
2022-09-23T23:26:55.349Z,78.20
2022-09-23T23:31:58.115Z,78.40
2022-09-23T23:37:00.999Z,78.70
2022-09-23T23:42:05.259Z,78.90
2022-09-23T23:47:09.610Z,79.60
2022-09-23T23:52:12.444Z,79.10
2022-09-23T23:57:16.624Z,79.40
